sensor_id;sensor_type;location;lat;lon;timestamp;P1;durP1;ratioP1;P2;durP2;ratioP2
66680;SDS011;53575;51.366;12.350;2022-09-25T00:00:46;11.65;;;10.25;;
66680;SDS011;53575;51.366;12.350;2022-09-25T00:03:12;12.32;;;10.00;;
66680;SDS011;53575;51.366;12.350;2022-09-25T00:05:40;12.73;;;10.70;;
66680;SDS011;53575;51.366;12.350;2022-09-25T00:08:08;13.38;;;10.95;;
66680;SDS011;53575;51.366;12.350;2022-09-25T00:10:34;13.75;;;10.40;;
66680;SDS011;53575;51.366;12.350;2022-09-25T00:13:07;13.45;;;10.52;;
66680;SDS011;53575;51.366;12.350;2022-09-25T00:15:33;15.35;;;11.32;;
66680;SDS011;53575;51.366;12.350;2022-09-25T00:17:59;15.15;;;11.40;;
66680;SDS011;53575;51.366;12.350;2022-09-25T00:20:24;12.52;;;10.85;;
66680;SDS011;53575;51.366;12.350;2022-09-25T00:22:50;14.02;;;10.60;;
66680;SDS011;53575;51.366;12.350;2022-09-25T00:25:15;15.60;;;12.43;;
66680;SDS011;53575;51.366;12.350;2022-09-25T00:27:41;12.98;;;11.05;;
66680;SDS011;53575;51.366;12.350;2022-09-25T00:30:08;14.77;;;11.07;;
66680;SDS011;53575;51.366;12.350;2022-09-25T00:32:35;19.27;;;11.60;;
66680;SDS011;53575;51.366;12.350;2022-09-25T00:35:01;12.63;;;11.00;;
66680;SDS011;53575;51.366;12.350;2022-09-25T00:40:00;12.85;;;11.00;;
66680;SDS011;53575;51.366;12.350;2022-09-25T00:42:26;15.52;;;11.40;;
66680;SDS011;53575;51.366;12.350;2022-09-25T00:45:01;16.80;;;12.18;;
66680;SDS011;53575;51.366;12.350;2022-09-25T00:53:21;16.05;;;12.88;;
66680;SDS011;53575;51.366;12.350;2022-09-25T00:55:51;19.65;;;13.57;;
66680;SDS011;53575;51.366;12.350;2022-09-25T00:58:19;18.08;;;13.18;;
66680;SDS011;53575;51.366;12.350;2022-09-25T01:00:47;16.75;;;13.35;;
66680;SDS011;53575;51.366;12.350;2022-09-25T01:03:14;17.70;;;13.68;;
66680;SDS011;53575;51.366;12.350;2022-09-25T01:05:41;17.38;;;12.63;;
66680;SDS011;53575;51.366;12.350;2022-09-25T01:08:13;16.23;;;12.52;;
66680;SDS011;53575;51.366;12.350;2022-09-25T01:10:45;17.23;;;13.05;;
66680;SDS011;53575;51.366;12.350;2022-09-25T01:13:10;15.55;;;13.45;;
66680;SDS011;53575;51.366;12.350;2022-09-25T01:21:13;15.13;;;12.23;;
66680;SDS011;53575;51.366;12.350;2022-09-25T01:30:20;17.38;;;12.45;;
66680;SDS011;53575;51.366;12.350;2022-09-25T01:32:38;16.17;;;12.07;;
66680;SDS011;53575;51.366;12.350;2022-09-25T01:35:36;16.02;;;13.30;;
66680;SDS011;53575;51.366;12.350;2022-09-25T01:46:17;15.02;;;12.05;;
66680;SDS011;53575;51.366;12.350;2022-09-25T01:48:47;16.77;;;12.68;;
66680;SDS011;53575;51.366;12.350;2022-09-25T01:51:24;16.92;;;12.85;;
66680;SDS011;53575;51.366;12.350;2022-09-25T01:54:12;15.38;;;13.00;;
66680;SDS011;53575;51.366;12.350;2022-09-25T01:56:45;18.27;;;11.70;;
66680;SDS011;53575;51.366;12.350;2022-09-25T01:59:35;20.23;;;12.25;;
66680;SDS011;53575;51.366;12.350;2022-09-25T02:02:04;13.57;;;11.63;;
66680;SDS011;53575;51.366;12.350;2022-09-25T02:04:38;16.45;;;12.70;;
66680;SDS011;53575;51.366;12.350;2022-09-25T02:07:07;15.40;;;13.35;;
66680;SDS011;53575;51.366;12.350;2022-09-25T02:12:21;16.48;;;12.98;;
66680;SDS011;53575;51.366;12.350;2022-09-25T02:14:52;16.80;;;13.50;;
66680;SDS011;53575;51.366;12.350;2022-09-25T02:17:28;17.77;;;14.18;;
66680;SDS011;53575;51.366;12.350;2022-09-25T02:20:18;17.55;;;13.35;;
66680;SDS011;53575;51.366;12.350;2022-09-25T02:22:57;19.08;;;13.90;;
66680;SDS011;53575;51.366;12.350;2022-09-25T02:25:59;17.90;;;14.05;;
66680;SDS011;53575;51.366;12.350;2022-09-25T02:28:30;17.75;;;13.65;;
66680;SDS011;53575;51.366;12.350;2022-09-25T02:30:56;17.38;;;14.95;;
66680;SDS011;53575;51.366;12.350;2022-09-25T02:33:24;19.33;;;14.55;;
66680;SDS011;53575;51.366;12.350;2022-09-25T02:35:51;19.58;;;13.48;;
66680;SDS011;53575;51.366;12.350;2022-09-25T02:38:17;17.58;;;13.70;;
66680;SDS011;53575;51.366;12.350;2022-09-25T02:40:45;16.40;;;13.35;;
66680;SDS011;53575;51.366;12.350;2022-09-25T02:48:51;17.67;;;13.75;;
66680;SDS011;53575;51.366;12.350;2022-09-25T02:56:39;17.75;;;13.20;;
66680;SDS011;53575;51.366;12.350;2022-09-25T02:59:14;22.33;;;13.43;;
66680;SDS011;53575;51.366;12.350;2022-09-25T03:01:44;17.02;;;13.65;;
66680;SDS011;53575;51.366;12.350;2022-09-25T03:04:11;17.38;;;13.90;;
66680;SDS011;53575;51.366;12.350;2022-09-25T03:06:41;16.75;;;13.25;;
66680;SDS011;53575;51.366;12.350;2022-09-25T03:09:08;15.90;;;13.68;;
66680;SDS011;53575;51.366;12.350;2022-09-25T03:11:36;17.20;;;14.73;;
66680;SDS011;53575;51.366;12.350;2022-09-25T03:14:06;18.45;;;14.48;;
66680;SDS011;53575;51.366;12.350;2022-09-25T03:16:33;15.63;;;13.40;;
66680;SDS011;53575;51.366;12.350;2022-09-25T03:19:05;18.65;;;13.77;;
66680;SDS011;53575;51.366;12.350;2022-09-25T03:21:31;15.82;;;13.75;;
66680;SDS011;53575;51.366;12.350;2022-09-25T03:23:58;17.73;;;13.82;;
66680;SDS011;53575;51.366;12.350;2022-09-25T03:26:24;17.70;;;14.18;;
66680;SDS011;53575;51.366;12.350;2022-09-25T03:28:51;18.45;;;14.30;;
66680;SDS011;53575;51.366;12.350;2022-09-25T03:31:17;17.55;;;13.75;;
66680;SDS011;53575;51.366;12.350;2022-09-25T03:33:43;17.30;;;13.52;;
66680;SDS011;53575;51.366;12.350;2022-09-25T03:36:16;15.95;;;13.48;;
66680;SDS011;53575;51.366;12.350;2022-09-25T03:38:43;17.10;;;13.93;;
66680;SDS011;53575;51.366;12.350;2022-09-25T03:41:10;17.98;;;14.40;;
66680;SDS011;53575;51.366;12.350;2022-09-25T03:43:37;17.13;;;13.95;;
66680;SDS011;53575;51.366;12.350;2022-09-25T03:46:05;16.80;;;13.85;;
66680;SDS011;53575;51.366;12.350;2022-09-25T03:48:33;19.15;;;14.02;;
66680;SDS011;53575;51.366;12.350;2022-09-25T03:50:59;19.83;;;13.88;;
66680;SDS011;53575;51.366;12.350;2022-09-25T03:53:28;20.00;;;14.43;;
66680;SDS011;53575;51.366;12.350;2022-09-25T03:56:04;18.88;;;14.40;;
66680;SDS011;53575;51.366;12.350;2022-09-25T03:58:31;19.98;;;13.40;;
66680;SDS011;53575;51.366;12.350;2022-09-25T04:00:57;20.75;;;14.32;;
66680;SDS011;53575;51.366;12.350;2022-09-25T04:03:23;16.85;;;13.85;;
66680;SDS011;53575;51.366;12.350;2022-09-25T04:05:52;16.23;;;14.25;;
66680;SDS011;53575;51.366;12.350;2022-09-25T04:08:19;16.38;;;13.85;;
66680;SDS011;53575;51.366;12.350;2022-09-25T04:10:44;16.35;;;13.20;;
66680;SDS011;53575;51.366;12.350;2022-09-25T04:13:12;17.15;;;13.57;;
66680;SDS011;53575;51.366;12.350;2022-09-25T04:15:38;16.65;;;14.23;;
66680;SDS011;53575;51.366;12.350;2022-09-25T04:18:06;21.75;;;14.35;;
66680;SDS011;53575;51.366;12.350;2022-09-25T04:20:31;19.02;;;14.35;;
66680;SDS011;53575;51.366;12.350;2022-09-25T04:22:57;19.73;;;14.82;;
66680;SDS011;53575;51.366;12.350;2022-09-25T04:25:22;18.70;;;14.98;;
66680;SDS011;53575;51.366;12.350;2022-09-25T04:27:52;19.92;;;15.82;;
66680;SDS011;53575;51.366;12.350;2022-09-25T04:30:19;18.13;;;15.68;;
66680;SDS011;53575;51.366;12.350;2022-09-25T04:32:49;19.73;;;14.68;;
66680;SDS011;53575;51.366;12.350;2022-09-25T04:35:33;15.63;;;13.35;;
66680;SDS011;53575;51.366;12.350;2022-09-25T04:37:59;18.33;;;14.05;;
66680;SDS011;53575;51.366;12.350;2022-09-25T04:40:25;17.35;;;14.10;;
66680;SDS011;53575;51.366;12.350;2022-09-25T04:42:57;21.40;;;15.30;;
66680;SDS011;53575;51.366;12.350;2022-09-25T04:45:24;16.60;;;14.00;;
66680;SDS011;53575;51.366;12.350;2022-09-25T04:47:51;15.88;;;14.05;;
66680;SDS011;53575;51.366;12.350;2022-09-25T04:50:18;19.50;;;14.85;;
66680;SDS011;53575;51.366;12.350;2022-09-25T04:52:44;18.17;;;14.57;;
66680;SDS011;53575;51.366;12.350;2022-09-25T04:55:12;16.35;;;13.60;;
66680;SDS011;53575;51.366;12.350;2022-09-25T04:57:38;17.15;;;14.70;;
66680;SDS011;53575;51.366;12.350;2022-09-25T05:00:04;16.80;;;14.32;;
66680;SDS011;53575;51.366;12.350;2022-09-25T05:02:30;19.05;;;14.50;;
66680;SDS011;53575;51.366;12.350;2022-09-25T05:04:55;18.77;;;14.02;;
66680;SDS011;53575;51.366;12.350;2022-09-25T05:07:21;17.88;;;14.13;;
66680;SDS011;53575;51.366;12.350;2022-09-25T05:09:46;16.42;;;14.32;;
66680;SDS011;53575;51.366;12.350;2022-09-25T05:12:12;19.88;;;14.65;;
66680;SDS011;53575;51.366;12.350;2022-09-25T05:14:38;16.73;;;14.02;;
66680;SDS011;53575;51.366;12.350;2022-09-25T05:17:06;18.75;;;14.85;;
66680;SDS011;53575;51.366;12.350;2022-09-25T05:19:32;19.33;;;15.43;;
66680;SDS011;53575;51.366;12.350;2022-09-25T05:21:59;20.30;;;16.00;;
66680;SDS011;53575;51.366;12.350;2022-09-25T05:24:24;19.48;;;15.05;;
66680;SDS011;53575;51.366;12.350;2022-09-25T05:26:49;19.88;;;14.82;;
66680;SDS011;53575;51.366;12.350;2022-09-25T05:29:15;19.20;;;15.10;;
66680;SDS011;53575;51.366;12.350;2022-09-25T05:31:40;19.45;;;15.63;;
66680;SDS011;53575;51.366;12.350;2022-09-25T05:34:10;17.33;;;15.27;;
66680;SDS011;53575;51.366;12.350;2022-09-25T05:36:36;20.00;;;15.48;;
66680;SDS011;53575;51.366;12.350;2022-09-25T05:39:01;20.98;;;15.80;;
66680;SDS011;53575;51.366;12.350;2022-09-25T05:41:27;17.27;;;15.38;;
66680;SDS011;53575;51.366;12.350;2022-09-25T05:43:52;18.60;;;15.20;;
66680;SDS011;53575;51.366;12.350;2022-09-25T05:46:19;19.88;;;15.52;;
66680;SDS011;53575;51.366;12.350;2022-09-25T05:48:44;17.92;;;14.60;;
66680;SDS011;53575;51.366;12.350;2022-09-25T05:51:09;18.15;;;15.63;;
66680;SDS011;53575;51.366;12.350;2022-09-25T05:53:35;20.73;;;16.20;;
66680;SDS011;53575;51.366;12.350;2022-09-25T05:56:02;22.13;;;16.65;;
66680;SDS011;53575;51.366;12.350;2022-09-25T05:58:29;20.13;;;15.60;;
66680;SDS011;53575;51.366;12.350;2022-09-25T06:01:04;20.75;;;15.40;;
66680;SDS011;53575;51.366;12.350;2022-09-25T06:03:30;19.55;;;15.80;;
66680;SDS011;53575;51.366;12.350;2022-09-25T06:05:58;21.17;;;16.05;;
66680;SDS011;53575;51.366;12.350;2022-09-25T06:08:25;18.67;;;15.77;;
66680;SDS011;53575;51.366;12.350;2022-09-25T06:10:54;19.08;;;16.23;;
66680;SDS011;53575;51.366;12.350;2022-09-25T06:13:20;20.10;;;16.20;;
66680;SDS011;53575;51.366;12.350;2022-09-25T06:15:47;18.67;;;15.57;;
66680;SDS011;53575;51.366;12.350;2022-09-25T06:18:16;18.88;;;16.55;;
66680;SDS011;53575;51.366;12.350;2022-09-25T06:20:43;22.02;;;17.40;;
66680;SDS011;53575;51.366;12.350;2022-09-25T06:23:08;20.42;;;16.40;;
66680;SDS011;53575;51.366;12.350;2022-09-25T06:25:33;19.80;;;16.23;;
66680;SDS011;53575;51.366;12.350;2022-09-25T06:28:00;20.58;;;16.38;;
66680;SDS011;53575;51.366;12.350;2022-09-25T06:30:27;17.55;;;15.32;;
66680;SDS011;53575;51.366;12.350;2022-09-25T06:35:33;19.83;;;16.17;;
66680;SDS011;53575;51.366;12.350;2022-09-25T06:38:00;20.85;;;15.52;;
66680;SDS011;53575;51.366;12.350;2022-09-25T06:40:27;20.38;;;15.48;;
66680;SDS011;53575;51.366;12.350;2022-09-25T06:43:04;16.55;;;14.73;;
66680;SDS011;53575;51.366;12.350;2022-09-25T06:45:31;19.60;;;15.02;;
66680;SDS011;53575;51.366;12.350;2022-09-25T06:48:01;24.20;;;16.30;;
66680;SDS011;53575;51.366;12.350;2022-09-25T06:50:30;20.83;;;14.95;;
66680;SDS011;53575;51.366;12.350;2022-09-25T06:53:02;19.52;;;13.98;;
66680;SDS011;53575;51.366;12.350;2022-09-25T06:55:28;17.23;;;15.30;;
66680;SDS011;53575;51.366;12.350;2022-09-25T06:57:56;18.85;;;16.17;;
66680;SDS011;53575;51.366;12.350;2022-09-25T07:00:22;23.45;;;16.80;;
66680;SDS011;53575;51.366;12.350;2022-09-25T07:02:47;19.60;;;15.63;;
66680;SDS011;53575;51.366;12.350;2022-09-25T07:05:31;21.55;;;16.35;;
66680;SDS011;53575;51.366;12.350;2022-09-25T07:07:57;18.75;;;16.60;;
66680;SDS011;53575;51.366;12.350;2022-09-25T07:10:22;23.20;;;16.58;;
66680;SDS011;53575;51.366;12.350;2022-09-25T07:12:48;19.50;;;16.85;;
66680;SDS011;53575;51.366;12.350;2022-09-25T07:15:13;18.95;;;15.60;;
66680;SDS011;53575;51.366;12.350;2022-09-25T07:17:43;22.75;;;17.40;;
66680;SDS011;53575;51.366;12.350;2022-09-25T07:20:10;20.30;;;16.60;;
66680;SDS011;53575;51.366;12.350;2022-09-25T07:22:38;21.10;;;17.15;;
66680;SDS011;53575;51.366;12.350;2022-09-25T07:25:04;20.70;;;17.30;;
66680;SDS011;53575;51.366;12.350;2022-09-25T07:27:30;20.95;;;18.42;;
66680;SDS011;53575;51.366;12.350;2022-09-25T07:29:56;22.35;;;18.58;;
66680;SDS011;53575;51.366;12.350;2022-09-25T07:32:21;21.60;;;17.73;;
66680;SDS011;53575;51.366;12.350;2022-09-25T07:34:47;22.17;;;17.92;;
66680;SDS011;53575;51.366;12.350;2022-09-25T07:37:16;20.77;;;16.83;;
66680;SDS011;53575;51.366;12.350;2022-09-25T07:39:42;20.10;;;17.15;;
66680;SDS011;53575;51.366;12.350;2022-09-25T07:42:08;26.42;;;21.52;;
66680;SDS011;53575;51.366;12.350;2022-09-25T07:44:33;21.85;;;17.33;;
66680;SDS011;53575;51.366;12.350;2022-09-25T07:46:59;21.50;;;17.52;;
66680;SDS011;53575;51.366;12.350;2022-09-25T07:49:25;19.48;;;17.05;;
66680;SDS011;53575;51.366;12.350;2022-09-25T07:51:51;21.55;;;17.83;;
66680;SDS011;53575;51.366;12.350;2022-09-25T07:54:16;20.13;;;17.30;;
66680;SDS011;53575;51.366;12.350;2022-09-25T07:56:42;21.85;;;17.25;;
66680;SDS011;53575;51.366;12.350;2022-09-25T07:59:07;19.70;;;16.92;;
66680;SDS011;53575;51.366;12.350;2022-09-25T08:01:32;21.98;;;16.77;;
66680;SDS011;53575;51.366;12.350;2022-09-25T08:03:58;21.35;;;17.80;;
66680;SDS011;53575;51.366;12.350;2022-09-25T08:06:23;20.90;;;17.65;;
66680;SDS011;53575;51.366;12.350;2022-09-25T08:08:49;24.42;;;17.77;;
66680;SDS011;53575;51.366;12.350;2022-09-25T08:11:15;21.52;;;18.38;;
66680;SDS011;53575;51.366;12.350;2022-09-25T08:13:42;19.92;;;17.83;;
66680;SDS011;53575;51.366;12.350;2022-09-25T08:16:10;22.88;;;17.20;;
66680;SDS011;53575;51.366;12.350;2022-09-25T08:18:44;22.08;;;18.60;;
66680;SDS011;53575;51.366;12.350;2022-09-25T08:21:11;20.45;;;17.90;;
66680;SDS011;53575;51.366;12.350;2022-09-25T08:23:38;23.88;;;17.70;;
66680;SDS011;53575;51.366;12.350;2022-09-25T08:26:05;20.92;;;17.73;;
66680;SDS011;53575;51.366;12.350;2022-09-25T08:28:31;20.23;;;16.55;;
66680;SDS011;53575;51.366;12.350;2022-09-25T08:30:57;21.77;;;17.70;;
66680;SDS011;53575;51.366;12.350;2022-09-25T08:33:24;27.27;;;20.17;;
66680;SDS011;53575;51.366;12.350;2022-09-25T08:35:56;21.52;;;16.27;;
66680;SDS011;53575;51.366;12.350;2022-09-25T08:38:24;20.05;;;16.05;;
66680;SDS011;53575;51.366;12.350;2022-09-25T08:40:52;26.15;;;18.08;;
66680;SDS011;53575;51.366;12.350;2022-09-25T08:43:21;21.38;;;16.70;;
66680;SDS011;53575;51.366;12.350;2022-09-25T08:45:48;20.88;;;17.00;;
66680;SDS011;53575;51.366;12.350;2022-09-25T08:48:37;24.65;;;18.38;;
66680;SDS011;53575;51.366;12.350;2022-09-25T08:51:30;21.23;;;16.75;;
66680;SDS011;53575;51.366;12.350;2022-09-25T08:53:59;22.02;;;17.65;;
66680;SDS011;53575;51.366;12.350;2022-09-25T08:56:28;19.98;;;15.27;;
66680;SDS011;53575;51.366;12.350;2022-09-25T09:01:52;19.35;;;15.38;;
66680;SDS011;53575;51.366;12.350;2022-09-25T09:04:27;19.08;;;14.32;;
66680;SDS011;53575;51.366;12.350;2022-09-25T09:07:05;16.90;;;14.82;;
66680;SDS011;53575;51.366;12.350;2022-09-25T09:09:36;21.38;;;16.00;;
66680;SDS011;53575;51.366;12.350;2022-09-25T09:12:11;17.75;;;15.20;;
66680;SDS011;53575;51.366;12.350;2022-09-25T09:14:46;19.10;;;15.95;;
66680;SDS011;53575;51.366;12.350;2022-09-25T09:17:15;18.65;;;14.02;;
66680;SDS011;53575;51.366;12.350;2022-09-25T09:19:43;17.90;;;13.88;;
66680;SDS011;53575;51.366;12.350;2022-09-25T09:22:15;18.02;;;14.32;;
66680;SDS011;53575;51.366;12.350;2022-09-25T09:27:34;19.05;;;13.18;;
66680;SDS011;53575;51.366;12.350;2022-09-25T09:35:36;16.80;;;13.63;;
66680;SDS011;53575;51.366;12.350;2022-09-25T09:49:16;18.20;;;14.55;;
66680;SDS011;53575;51.366;12.350;2022-09-25T09:56:53;17.92;;;14.13;;
66680;SDS011;53575;51.366;12.350;2022-09-25T09:59:25;18.60;;;15.00;;
66680;SDS011;53575;51.366;12.350;2022-09-25T10:04:55;19.40;;;14.50;;
66680;SDS011;53575;51.366;12.350;2022-09-25T10:07:27;18.83;;;14.35;;
66680;SDS011;53575;51.366;12.350;2022-09-25T10:09:57;18.30;;;13.30;;
66680;SDS011;53575;51.366;12.350;2022-09-25T10:12:27;17.75;;;14.15;;
66680;SDS011;53575;51.366;12.350;2022-09-25T10:14:57;21.77;;;14.82;;
66680;SDS011;53575;51.366;12.350;2022-09-25T10:20:13;15.77;;;13.38;;
66680;SDS011;53575;51.366;12.350;2022-09-25T10:22:43;18.80;;;15.15;;
66680;SDS011;53575;51.366;12.350;2022-09-25T10:25:10;18.27;;;14.98;;
66680;SDS011;53575;51.366;12.350;2022-09-25T10:32:32;21.92;;;15.02;;
66680;SDS011;53575;51.366;12.350;2022-09-25T10:34:59;21.48;;;15.93;;
66680;SDS011;53575;51.366;12.350;2022-09-25T10:37:26;20.98;;;14.93;;
66680;SDS011;53575;51.366;12.350;2022-09-25T10:40:03;20.98;;;15.30;;
66680;SDS011;53575;51.366;12.350;2022-09-25T10:42:37;25.63;;;19.00;;
66680;SDS011;53575;51.366;12.350;2022-09-25T10:45:14;19.55;;;15.02;;
66680;SDS011;53575;51.366;12.350;2022-09-25T10:47:52;20.98;;;14.90;;
66680;SDS011;53575;51.366;12.350;2022-09-25T10:50:36;19.70;;;15.52;;
66680;SDS011;53575;51.366;12.350;2022-09-25T10:53:01;20.50;;;15.73;;
66680;SDS011;53575;51.366;12.350;2022-09-25T11:03:14;17.38;;;14.15;;
66680;SDS011;53575;51.366;12.350;2022-09-25T11:05:56;18.50;;;14.68;;
66680;SDS011;53575;51.366;12.350;2022-09-25T11:08:26;18.27;;;14.90;;
66680;SDS011;53575;51.366;12.350;2022-09-25T11:10:56;16.48;;;14.32;;
66680;SDS011;53575;51.366;12.350;2022-09-25T11:13:38;16.98;;;14.25;;
66680;SDS011;53575;51.366;12.350;2022-09-25T11:16:10;22.35;;;15.98;;
66680;SDS011;53575;51.366;12.350;2022-09-25T11:18:41;20.17;;;15.00;;
66680;SDS011;53575;51.366;12.350;2022-09-25T11:26:42;17.38;;;13.73;;
66680;SDS011;53575;51.366;12.350;2022-09-25T11:29:32;16.52;;;13.88;;
66680;SDS011;53575;51.366;12.350;2022-09-25T11:32:14;16.88;;;13.60;;
66680;SDS011;53575;51.366;12.350;2022-09-25T11:37:30;20.98;;;13.98;;
66680;SDS011;53575;51.366;12.350;2022-09-25T11:40:47;14.98;;;13.00;;
66680;SDS011;53575;51.366;12.350;2022-09-25T11:46:27;21.45;;;17.15;;
66680;SDS011;53575;51.366;12.350;2022-09-25T11:57:28;15.30;;;11.57;;
66680;SDS011;53575;51.366;12.350;2022-09-25T12:00:21;13.10;;;10.85;;
66680;SDS011;53575;51.366;12.350;2022-09-25T12:18:53;22.08;;;14.10;;
66680;SDS011;53575;51.366;12.350;2022-09-25T12:21:32;14.50;;;10.75;;
66680;SDS011;53575;51.366;12.350;2022-09-25T12:24:01;13.25;;;10.68;;
66680;SDS011;53575;51.366;12.350;2022-09-25T12:26:50;12.38;;;9.80;;
66680;SDS011;53575;51.366;12.350;2022-09-25T12:31:59;12.50;;;10.70;;
66680;SDS011;53575;51.366;12.350;2022-09-25T12:40:37;13.80;;;10.90;;
66680;SDS011;53575;51.366;12.350;2022-09-25T12:46:11;13.63;;;9.48;;
66680;SDS011;53575;51.366;12.350;2022-09-25T12:48:46;17.48;;;12.40;;
66680;SDS011;53575;51.366;12.350;2022-09-25T12:54:05;37.38;;;23.75;;
66680;SDS011;53575;51.366;12.350;2022-09-25T13:05:22;12.40;;;10.15;;
66680;SDS011;53575;51.366;12.350;2022-09-25T13:07:58;14.02;;;10.23;;
66680;SDS011;53575;51.366;12.350;2022-09-25T13:13:04;14.57;;;10.65;;
66680;SDS011;53575;51.366;12.350;2022-09-25T13:15:37;13.40;;;9.77;;
66680;SDS011;53575;51.366;12.350;2022-09-25T13:18:10;24.85;;;18.35;;
66680;SDS011;53575;51.366;12.350;2022-09-25T13:20:52;26.45;;;19.83;;
66680;SDS011;53575;51.366;12.350;2022-09-25T13:23:32;12.15;;;9.23;;
66680;SDS011;53575;51.366;12.350;2022-09-25T13:26:07;14.13;;;8.07;;
66680;SDS011;53575;51.366;12.350;2022-09-25T13:28:51;11.35;;;9.05;;
66680;SDS011;53575;51.366;12.350;2022-09-25T13:34:04;11.88;;;9.32;;
66680;SDS011;53575;51.366;12.350;2022-09-25T13:39:30;10.82;;;8.43;;
66680;SDS011;53575;51.366;12.350;2022-09-25T13:42:23;10.85;;;7.97;;
66680;SDS011;53575;51.366;12.350;2022-09-25T13:44:56;11.13;;;7.85;;
66680;SDS011;53575;51.366;12.350;2022-09-25T13:50:16;10.35;;;8.90;;
66680;SDS011;53575;51.366;12.350;2022-09-25T13:53:13;13.57;;;10.43;;
66680;SDS011;53575;51.366;12.350;2022-09-25T13:58:24;9.00;;;7.43;;
66680;SDS011;53575;51.366;12.350;2022-09-25T14:00:55;9.60;;;7.83;;
66680;SDS011;53575;51.366;12.350;2022-09-25T14:08:57;12.02;;;8.45;;
66680;SDS011;53575;51.366;12.350;2022-09-25T14:11:30;8.75;;;6.25;;
66680;SDS011;53575;51.366;12.350;2022-09-25T14:13:58;11.40;;;6.82;;
66680;SDS011;53575;51.366;12.350;2022-09-25T14:16:30;8.25;;;6.70;;
66680;SDS011;53575;51.366;12.350;2022-09-25T14:19:22;9.05;;;7.03;;
66680;SDS011;53575;51.366;12.350;2022-09-25T14:21:51;6.35;;;5.45;;
66680;SDS011;53575;51.366;12.350;2022-09-25T14:24:18;7.10;;;5.18;;
66680;SDS011;53575;51.366;12.350;2022-09-25T14:26:47;10.00;;;5.93;;
66680;SDS011;53575;51.366;12.350;2022-09-25T14:29:16;8.77;;;5.90;;
66680;SDS011;53575;51.366;12.350;2022-09-25T14:37:18;7.70;;;6.20;;
66680;SDS011;53575;51.366;12.350;2022-09-25T14:48:14;7.22;;;5.78;;
66680;SDS011;53575;51.366;12.350;2022-09-25T14:50:44;12.18;;;5.85;;
66680;SDS011;53575;51.366;12.350;2022-09-25T14:53:14;8.30;;;5.72;;
66680;SDS011;53575;51.366;12.350;2022-09-25T14:56:02;16.63;;;9.75;;
66680;SDS011;53575;51.366;12.350;2022-09-25T14:58:33;8.55;;;6.25;;
66680;SDS011;53575;51.366;12.350;2022-09-25T15:01:43;9.10;;;5.85;;
66680;SDS011;53575;51.366;12.350;2022-09-25T15:04:06;8.10;;;6.30;;
66680;SDS011;53575;51.366;12.350;2022-09-25T15:06:37;8.38;;;6.43;;
66680;SDS011;53575;51.366;12.350;2022-09-25T15:09:25;7.75;;;5.75;;
66680;SDS011;53575;51.366;12.350;2022-09-25T15:11:54;8.93;;;6.30;;
66680;SDS011;53575;51.366;12.350;2022-09-25T15:14:20;6.20;;;4.90;;
66680;SDS011;53575;51.366;12.350;2022-09-25T15:16:46;9.10;;;5.30;;
66680;SDS011;53575;51.366;12.350;2022-09-25T15:19:32;7.10;;;5.38;;
66680;SDS011;53575;51.366;12.350;2022-09-25T15:22:01;7.82;;;5.07;;
66680;SDS011;53575;51.366;12.350;2022-09-25T15:24:49;5.65;;;4.72;;
66680;SDS011;53575;51.366;12.350;2022-09-25T15:27:19;8.10;;;5.35;;
66680;SDS011;53575;51.366;12.350;2022-09-25T15:29:46;6.97;;;5.50;;
66680;SDS011;53575;51.366;12.350;2022-09-25T15:32:17;8.02;;;5.15;;
66680;SDS011;53575;51.366;12.350;2022-09-25T15:34:46;7.65;;;5.30;;
66680;SDS011;53575;51.366;12.350;2022-09-25T15:39:52;5.97;;;5.07;;
66680;SDS011;53575;51.366;12.350;2022-09-25T15:42:18;5.93;;;4.93;;
66680;SDS011;53575;51.366;12.350;2022-09-25T15:44:44;8.48;;;5.50;;
66680;SDS011;53575;51.366;12.350;2022-09-25T15:50:04;7.38;;;5.63;;
66680;SDS011;53575;51.366;12.350;2022-09-25T15:52:39;8.15;;;5.65;;
66680;SDS011;53575;51.366;12.350;2022-09-25T15:55:05;8.23;;;6.22;;
66680;SDS011;53575;51.366;12.350;2022-09-25T15:57:36;8.55;;;6.40;;
66680;SDS011;53575;51.366;12.350;2022-09-25T16:00:06;8.90;;;6.95;;
66680;SDS011;53575;51.366;12.350;2022-09-25T16:02:59;9.93;;;6.35;;
66680;SDS011;53575;51.366;12.350;2022-09-25T16:05:48;10.88;;;7.28;;
66680;SDS011;53575;51.366;12.350;2022-09-25T16:10:47;11.73;;;9.23;;
66680;SDS011;53575;51.366;12.350;2022-09-25T16:13:21;8.95;;;6.78;;
66680;SDS011;53575;51.366;12.350;2022-09-25T16:15:49;13.20;;;8.18;;
66680;SDS011;53575;51.366;12.350;2022-09-25T16:20:54;7.70;;;6.40;;
66680;SDS011;53575;51.366;12.350;2022-09-25T16:23:31;8.57;;;6.32;;
66680;SDS011;53575;51.366;12.350;2022-09-25T16:25:57;14.63;;;9.40;;
66680;SDS011;53575;51.366;12.350;2022-09-25T16:28:24;13.35;;;8.30;;
66680;SDS011;53575;51.366;12.350;2022-09-25T16:31:04;8.82;;;6.38;;
66680;SDS011;53575;51.366;12.350;2022-09-25T16:36:02;11.20;;;7.40;;
66680;SDS011;53575;51.366;12.350;2022-09-25T16:38:34;10.98;;;6.65;;
66680;SDS011;53575;51.366;12.350;2022-09-25T16:43:34;13.63;;;7.38;;
66680;SDS011;53575;51.366;12.350;2022-09-25T16:46:12;11.82;;;7.93;;
66680;SDS011;53575;51.366;12.350;2022-09-25T16:48:38;13.13;;;8.07;;
66680;SDS011;53575;51.366;12.350;2022-09-25T16:51:07;14.02;;;8.93;;
66680;SDS011;53575;51.366;12.350;2022-09-25T16:53:35;14.13;;;8.77;;
66680;SDS011;53575;51.366;12.350;2022-09-25T16:56:02;12.68;;;8.07;;
66680;SDS011;53575;51.366;12.350;2022-09-25T16:58:27;13.40;;;8.63;;
66680;SDS011;53575;51.366;12.350;2022-09-25T17:00:53;10.10;;;7.70;;
66680;SDS011;53575;51.366;12.350;2022-09-25T17:03:19;13.75;;;8.15;;
66680;SDS011;53575;51.366;12.350;2022-09-25T17:05:44;14.32;;;8.88;;
66680;SDS011;53575;51.366;12.350;2022-09-25T17:08:13;17.08;;;10.18;;
66680;SDS011;53575;51.366;12.350;2022-09-25T17:10:48;16.13;;;9.00;;
66680;SDS011;53575;51.366;12.350;2022-09-25T17:13:16;15.55;;;11.48;;
66680;SDS011;53575;51.366;12.350;2022-09-25T17:15:47;10.45;;;8.15;;
66680;SDS011;53575;51.366;12.350;2022-09-25T17:18:17;12.43;;;9.23;;
66680;SDS011;53575;51.366;12.350;2022-09-25T17:20:43;12.77;;;9.27;;
66680;SDS011;53575;51.366;12.350;2022-09-25T17:23:09;14.82;;;9.00;;
66680;SDS011;53575;51.366;12.350;2022-09-25T17:25:37;16.10;;;9.90;;
66680;SDS011;53575;51.366;12.350;2022-09-25T17:28:14;15.70;;;9.10;;
66680;SDS011;53575;51.366;12.350;2022-09-25T17:30:41;14.40;;;9.75;;
66680;SDS011;53575;51.366;12.350;2022-09-25T17:33:14;16.00;;;11.50;;
66680;SDS011;53575;51.366;12.350;2022-09-25T17:35:44;13.25;;;8.80;;
66680;SDS011;53575;51.366;12.350;2022-09-25T17:38:14;13.77;;;9.02;;
66680;SDS011;53575;51.366;12.350;2022-09-25T17:40:40;13.38;;;9.35;;
66680;SDS011;53575;51.366;12.350;2022-09-25T17:43:08;11.57;;;7.80;;
66680;SDS011;53575;51.366;12.350;2022-09-25T17:45:38;12.05;;;8.48;;
66680;SDS011;53575;51.366;12.350;2022-09-25T17:48:09;11.75;;;7.97;;
66680;SDS011;53575;51.366;12.350;2022-09-25T17:50:36;11.38;;;7.80;;